Time;durP1;ratioP1;P1;durP2;ratioP2;P2;SDS_P1;SDS_P2;PMS_P1;PMS_P2;Temp;Humidity;BMP_temperature;BMP_pressure;BME280_temperature;BME280_humidity;BME280_pressure;Samples;Min_cycle;Max_cycle;Signal;HPM_P1;HPM_P2
2022/08/28 04:02:52;;;;;;;10.13;4.55;;;16.40;99.90;;;;;;5061988;23;93186;-71
2022/08/28 04:05:18;;;;;;;7.80;3.92;;;16.40;99.90;;;;;;4805207;29;92263;-72
2022/08/28 04:07:44;;;;;;;8.50;4.35;;;16.40;99.90;;;;;;4797544;29;92145;-71
2022/08/28 04:10:11;;;;;;;9.27;4.47;;;16.30;99.90;;;;;;4803175;29;91822;-71
2022/08/28 04:12:37;;;;;;;7.68;4.40;;;16.30;99.90;;;;;;4809303;29;91344;-72
2022/08/28 04:15:03;;;;;;;11.73;5.18;;;16.30;99.90;;;;;;4809566;29;91841;-71
2022/08/28 04:17:29;;;;;;;8.00;4.40;;;16.20;99.90;;;;;;4800630;29;92848;-70
2022/08/28 04:19:55;;;;;;;7.32;4.10;;;16.20;99.90;;;;;;4793641;29;92150;-71
2022/08/28 04:22:21;;;;;;;9.70;4.30;;;16.30;99.90;;;;;;4794372;29;91401;-71
2022/08/28 04:24:47;;;;;;;7.75;3.88;;;16.30;99.90;;;;;;4805512;29;91687;-71
2022/08/28 04:27:13;;;;;;;8.85;4.25;;;16.30;99.90;;;;;;4803655;29;92294;-70
2022/08/28 04:29:40;;;;;;;6.72;3.17;;;16.20;99.90;;;;;;4800567;29;93349;-71
2022/08/28 04:32:06;;;;;;;7.40;3.65;;;16.30;99.90;;;;;;4792682;29;92027;-71
2022/08/28 04:34:31;;;;;;;6.03;3.58;;;16.30;99.90;;;;;;4802316;29;90637;-71
2022/08/28 04:36:57;;;;;;;6.80;4.10;;;16.30;99.90;;;;;;4793651;29;91776;-70
2022/08/28 04:39:23;;;;;;;8.82;3.30;;;16.30;99.90;;;;;;4797870;29;91945;-70
2022/08/28 04:41:49;;;;;;;6.75;3.13;;;16.40;99.90;;;;;;4799177;29;94680;-71
2022/08/28 04:44:15;;;;;;;9.63;3.60;;;16.40;99.90;;;;;;4794921;29;91981;-71
2022/08/28 04:46:41;;;;;;;5.28;2.85;;;16.30;99.90;;;;;;4804266;29;91755;-71
2022/08/28 04:49:07;;;;;;;7.03;3.00;;;16.40;99.90;;;;;;4804533;29;91941;-71
2022/08/28 04:51:32;;;;;;;5.80;2.58;;;16.50;99.90;;;;;;4805069;29;91590;-71
2022/08/28 04:54:00;;;;;;;5.80;3.08;;;16.60;99.90;;;;;;4801230;29;92125;-72
2022/08/28 04:56:26;;;;;;;6.22;3.17;;;16.60;99.90;;;;;;4792461;29;91690;-70
2022/08/28 04:58:52;;;;;;;5.97;2.63;;;16.60;99.90;;;;;;4804370;29;92393;-71
2022/08/28 05:01:20;;;;;;;5.88;2.78;;;16.60;99.90;;;;;;4807247;29;92009;-71
2022/08/28 05:03:47;;;;;;;6.65;3.35;;;16.70;99.90;;;;;;4794750;29;91400;-71
2022/08/28 05:06:15;;;;;;;6.75;3.33;;;16.60;99.90;;;;;;4803921;29;93258;-71
2022/08/28 05:08:41;;;;;;;8.95;4.03;;;16.50;99.90;;;;;;4802023;29;92867;-72
2022/08/28 05:11:15;;;;;;;6.88;3.90;;;16.50;99.90;;;;;;4790041;29;91651;-71
2022/08/28 05:13:41;;;;;;;5.80;3.22;;;16.50;99.90;;;;;;4797905;29;92031;-71
2022/08/28 05:16:07;;;;;;;8.10;3.25;;;16.60;99.90;;;;;;4795725;29;93052;-71
2022/08/28 05:18:34;;;;;;;7.00;3.30;;;16.80;99.90;;;;;;4793330;29;91854;-70
2022/08/28 05:21:00;;;;;;;5.38;3.28;;;16.90;99.90;;;;;;4804904;29;91765;-72
2022/08/28 05:23:27;;;;;;;6.93;3.42;;;17.10;99.90;;;;;;4804894;29;90626;-70
2022/08/28 05:25:52;;;;;;;7.95;3.58;;;17.20;99.90;;;;;;4803130;29;91688;-72
2022/08/28 05:28:18;;;;;;;6.18;3.05;;;17.40;99.90;;;;;;4803211;29;91332;-69
2022/08/28 05:30:44;;;;;;;5.88;2.92;;;18.10;99.90;;;;;;4805073;29;93072;-69
2022/08/28 05:33:12;;;;;;;4.93;2.90;;;18.50;99.90;;;;;;4804466;29;91820;-69
2022/08/28 05:35:41;;;;;;;7.45;2.70;;;18.40;99.90;;;;;;4799093;29;92769;-69
2022/08/28 05:38:08;;;;;;;6.68;2.45;;;18.90;99.90;;;;;;4807792;29;94007;-70
2022/08/28 05:40:43;;;;;;;4.03;2.40;;;19.50;99.90;;;;;;4802140;29;91979;-69
2022/08/28 05:43:12;;;;;;;5.22;2.63;;;20.00;99.90;;;;;;4804332;29;91735;-69
2022/08/28 05:45:37;;;;;;;6.15;2.65;;;19.90;99.90;;;;;;4804096;29;92377;-69
2022/08/28 05:48:03;;;;;;;6.47;3.00;;;20.10;99.90;;;;;;4802590;29;92460;-69
2022/08/28 05:50:30;;;;;;;5.18;2.85;;;20.20;99.90;;;;;;4800732;29;91860;-68
2022/08/28 05:52:56;;;;;;;5.95;3.30;;;20.40;99.90;;;;;;4798712;29;92988;-69
2022/08/28 05:55:22;;;;;;;4.88;3.10;;;20.00;99.90;;;;;;4801580;29;92802;-69
2022/08/28 05:57:48;;;;;;;6.13;2.97;;;20.20;99.90;;;;;;4805170;29;93227;-70
2022/08/28 06:00:14;;;;;;;7.00;2.85;;;20.60;99.90;;;;;;4802099;29;91592;-69
2022/08/28 06:02:40;;;;;;;6.47;3.45;;;20.70;99.80;;;;;;4802727;29;91862;-69
2022/08/28 06:05:07;;;;;;;6.07;3.47;;;20.10;99.90;;;;;;4803313;29;92408;-69
2022/08/28 06:07:33;;;;;;;5.85;3.58;;;19.90;99.90;;;;;;4800992;29;91713;-70
2022/08/28 06:09:59;;;;;;;6.00;3.35;;;19.30;99.90;;;;;;4803578;29;91673;-69
2022/08/28 06:12:25;;;;;;;5.55;3.35;;;19.00;99.90;;;;;;4803442;29;90637;-69
2022/08/28 06:14:51;;;;;;;6.32;3.65;;;19.00;99.90;;;;;;4803313;29;92282;-69
2022/08/28 06:17:17;;;;;;;7.78;3.55;;;19.10;99.90;;;;;;4802685;29;92067;-70
2022/08/28 06:19:43;;;;;;;5.85;3.35;;;19.40;99.90;;;;;;4802466;29;92337;-68
2022/08/28 06:22:11;;;;;;;6.18;3.17;;;19.70;99.90;;;;;;4803647;29;91917;-69
2022/08/28 06:24:37;;;;;;;7.07;3.38;;;20.00;99.90;;;;;;4801692;29;92779;-71
2022/08/28 06:27:03;;;;;;;4.57;2.60;;;20.00;99.90;;;;;;4802938;29;92364;-69
2022/08/28 06:29:29;;;;;;;4.47;2.42;;;19.80;99.90;;;;;;4803891;29;91709;-69
2022/08/28 06:32:00;;;;;;;6.47;3.10;;;19.80;99.90;;;;;;4803367;29;91346;-70
2022/08/28 06:34:28;;;;;;;4.80;2.80;;;20.10;99.90;;;;;;4802578;29;92231;-69
2022/08/28 06:36:54;;;;;;;5.28;2.42;;;20.10;99.90;;;;;;4799091;29;91962;-70
2022/08/28 06:39:20;;;;;;;5.22;2.65;;;20.00;99.90;;;;;;4807691;29;92530;-70
2022/08/28 06:41:45;;;;;;;5.22;2.30;;;19.90;99.90;;;;;;4802033;29;91702;-70
2022/08/28 06:44:18;;;;;;;5.50;2.63;;;19.80;99.90;;;;;;4803350;29;93044;-69
2022/08/28 06:46:44;;;;;;;3.33;1.98;;;20.00;99.90;;;;;;4799275;29;92190;-69
2022/08/28 06:49:11;;;;;;;3.58;1.92;;;20.50;99.90;;;;;;4803334;29;91328;-70
2022/08/28 06:51:37;;;;;;;3.55;1.80;;;21.30;96.80;;;;;;4803102;29;91647;-70
2022/08/28 06:54:04;;;;;;;3.03;1.67;;;21.90;93.80;;;;;;4803633;29;92925;-70
2022/08/28 06:56:30;;;;;;;3.90;1.98;;;22.30;93.40;;;;;;4800704;29;93035;-71
2022/08/28 06:58:57;;;;;;;3.50;1.90;;;22.80;92.60;;;;;;4801077;29;91985;-69
2022/08/28 07:01:29;;;;;;;4.55;1.83;;;23.70;90.70;;;;;;4802646;29;92173;-70
2022/08/28 07:03:58;;;;;;;4.72;1.75;;;24.90;85.90;;;;;;4800865;29;91924;-72
2022/08/28 07:06:24;;;;;;;3.05;1.77;;;25.40;79.90;;;;;;4798650;29;92007;-71
2022/08/28 07:08:50;;;;;;;3.58;1.95;;;25.30;78.30;;;;;;4792925;29;92367;-71
2022/08/28 07:11:27;;;;;;;3.70;2.20;;;25.00;79.80;;;;;;4805374;29;92316;-70
2022/08/28 07:13:54;;;;;;;4.43;2.55;;;24.90;77.80;;;;;;4800542;29;92211;-71
2022/08/28 07:16:24;;;;;;;3.72;2.55;;;24.10;78.80;;;;;;4801847;29;91846;-70
2022/08/28 07:18:49;;;;;;;3.75;2.08;;;23.60;82.90;;;;;;4797118;29;92367;-71
2022/08/28 07:21:15;;;;;;;5.30;1.95;;;24.20;82.40;;;;;;4802072;29;92091;-71
2022/08/28 07:23:43;;;;;;;5.18;2.83;;;24.50;79.90;;;;;;4802750;29;92220;-72
2022/08/28 07:26:12;;;;;;;7.65;2.50;;;24.50;79.00;;;;;;4800426;29;92017;-72
2022/08/28 07:28:38;;;;;;;3.65;2.28;;;24.90;77.90;;;;;;4805342;29;93029;-70
2022/08/28 07:31:12;;;;;;;3.80;2.20;;;26.40;74.70;;;;;;4803298;29;91816;-70
2022/08/28 07:33:39;;;;;;;4.85;2.15;;;27.60;71.20;;;;;;4798673;29;92601;-70
2022/08/28 07:36:10;;;;;;;3.05;2.08;;;27.50;69.20;;;;;;4796439;29;92822;-72
2022/08/28 07:38:36;;;;;;;3.42;2.13;;;27.30;68.60;;;;;;4803654;29;92191;-69
2022/08/28 07:41:03;;;;;;;4.85;2.97;;;28.50;66.00;;;;;;4800812;29;92516;-71
2022/08/28 07:46:13;;;;;;;4.55;2.80;;;31.90;58.90;;;;;;4806605;29;91790;-69
2022/08/28 07:48:40;;;;;;;3.88;2.22;;;34.20;53.00;;;;;;4810951;29;91799;-69
2022/08/28 07:51:07;;;;;;;3.45;3.03;;;36.30;50.80;;;;;;4802950;29;91305;-69
2022/08/28 07:53:35;;;;;;;4.78;3.28;;;36.50;46.00;;;;;;4802356;29;93182;-69
2022/08/28 07:56:01;;;;;;;4.00;2.38;;;34.20;50.80;;;;;;4801782;29;91845;-70
2022/08/28 07:58:27;;;;;;;5.25;3.92;;;36.20;47.70;;;;;;4805096;29;92260;-69
2022/08/28 08:00:53;;;;;;;4.97;3.25;;;37.30;43.50;;;;;;4803971;29;91643;-70
2022/08/28 08:03:19;;;;;;;3.88;3.13;;;34.20;48.70;;;;;;4801727;29;92699;-70
2022/08/28 08:05:56;;;;;;;7.55;4.32;;;34.80;49.40;;;;;;4801637;29;92122;-72
2022/08/28 08:08:23;;;;;;;6.97;3.72;;;35.90;46.90;;;;;;4806312;29;92199;-70
2022/08/28 08:11:04;;;;;;;7.50;4.07;;;34.00;48.80;;;;;;4801401;29;92283;-70
2022/08/28 08:13:32;;;;;;;5.13;3.72;;;33.80;50.30;;;;;;4799447;29;91951;-70
2022/08/28 08:16:06;;;;;;;6.00;4.00;;;33.80;48.70;;;;;;4805842;29;93726;-70
2022/08/28 08:18:32;;;;;;;6.32;4.00;;;31.40;53.20;;;;;;4800957;29;92063;-72
2022/08/28 08:20:59;;;;;;;5.03;3.55;;;32.20;53.80;;;;;;4799870;29;91790;-72
2022/08/28 08:23:24;;;;;;;6.32;4.50;;;35.00;49.90;;;;;;4802204;29;93189;-72
2022/08/28 08:26:02;;;;;;;8.77;4.22;;;37.00;46.70;;;;;;4799953;29;93409;-72
2022/08/28 08:28:29;;;;;;;6.30;4.65;;;37.20;46.80;;;;;;4801291;29;91350;-69
2022/08/28 08:31:08;;;;;;;6.78;4.25;;;36.60;46.60;;;;;;4802180;29;91829;-69
2022/08/28 08:33:35;;;;;;;8.48;3.67;;;36.60;46.40;;;;;;4796268;29;94297;-66
2022/08/28 08:36:01;;;;;;;5.07;3.58;;;34.40;48.20;;;;;;4800909;29;94721;-68
2022/08/28 08:38:30;;;;;;;8.60;3.20;;;32.80;51.60;;;;;;4804336;29;92062;-68
2022/08/28 08:40:58;;;;;;;6.95;3.67;;;32.40;51.60;;;;;;4799961;29;91090;-68
2022/08/28 08:43:25;;;;;;;5.35;3.63;;;31.60;53.40;;;;;;4799605;29;92216;-69
2022/08/28 08:45:51;;;;;;;6.75;3.42;;;32.20;53.80;;;;;;4802080;29;92870;-65
2022/08/28 08:48:28;;;;;;;5.45;3.25;;;34.60;50.00;;;;;;4802873;29;92272;-67
2022/08/28 08:51:05;;;;;;;4.68;3.25;;;38.30;44.70;;;;;;4808666;29;91654;-70
2022/08/28 08:53:56;;;;;;;8.88;3.05;;;38.40;44.30;;;;;;4800875;29;94728;-70
2022/08/28 08:56:22;;;;;;;6.32;4.30;;;38.80;42.10;;;;;;4804711;29;92110;-72
2022/08/28 08:58:51;;;;;;;5.97;3.70;;;36.00;46.50;;;;;;4806439;29;91919;-67
2022/08/28 09:01:30;;;;;;;5.40;2.63;;;35.70;47.10;;;;;;4803723;29;92064;-71
2022/08/28 09:04:05;;;;;;;5.13;3.78;;;36.80;47.80;;;;;;4800768;29;92277;-70
2022/08/28 09:06:51;;;;;;;5.65;4.20;;;38.00;44.40;;;;;;4799337;29;93728;-66
2022/08/28 09:09:29;;;;;;;8.35;5.10;;;38.40;43.40;;;;;;4800616;29;91276;-71
2022/08/28 09:12:02;;;;;;;4.55;3.55;;;37.10;45.80;;;;;;4804429;29;91447;-71
2022/08/28 09:14:49;;;;;;;5.10;4.30;;;38.60;43.70;;;;;;4804345;29;93240;-69
2022/08/28 09:17:21;;;;;;;5.60;3.60;;;36.50;45.20;;;;;;4797904;29;94525;-71
2022/08/28 09:19:48;;;;;;;3.95;3.20;;;33.60;49.30;;;;;;4805083;29;92050;-69
2022/08/28 09:22:14;;;;;;;4.68;3.83;;;32.30;52.70;;;;;;4804240;29;91935;-70
2022/08/28 09:24:41;;;;;;;4.00;3.42;;;35.70;46.90;;;;;;4804495;29;93132;-71
2022/08/28 09:27:29;;;;;;;3.97;3.22;;;38.50;42.70;;;;;;4804139;29;93206;-69
2022/08/28 09:29:56;;;;;;;5.03;4.03;;;35.00;47.70;;;;;;4801584;29;92555;-69
2022/08/28 09:32:44;;;;;;;4.85;3.70;;;32.50;51.20;;;;;;4802917;29;91335;-70
2022/08/28 09:35:25;;;;;;;5.68;3.80;;;32.00;51.70;;;;;;4799891;29;91819;-70
2022/08/28 09:37:51;;;;;;;6.50;4.10;;;30.20;55.80;;;;;;4804272;29;93453;-71
2022/08/28 09:43:26;;;;;;;6.18;3.90;;;28.30;59.50;;;;;;4804595;29;91966;-66
2022/08/28 09:45:57;;;;;;;5.10;3.78;;;29.30;60.50;;;;;;4804252;29;93650;-71
2022/08/28 09:48:36;;;;;;;5.18;3.63;;;34.70;50.70;;;;;;4804523;29;91849;-71
2022/08/28 09:51:04;;;;;;;5.60;3.72;;;38.20;47.50;;;;;;4798960;29;91924;-69
2022/08/28 09:53:34;;;;;;;6.80;6.10;;;41.10;41.00;;;;;;4802197;29;91575;-72
2022/08/28 09:56:17;;;;;;;4.05;3.60;;;39.20;41.80;;;;;;4804086;29;93575;-68
2022/08/28 09:58:48;;;;;;;6.57;4.85;;;39.10;43.30;;;;;;4804821;29;91244;-71
2022/08/28 10:01:48;;;;;;;7.10;6.05;;;38.40;44.80;;;;;;4803778;29;91437;-70
2022/08/28 10:04:32;;;;;;;8.38;6.43;;;37.80;42.90;;;;;;4783184;29;92010;-71
2022/08/28 10:07:21;;;;;;;5.10;4.38;;;39.20;42.90;;;;;;4802869;29;94623;-70
2022/08/28 10:10:05;;;;;;;6.43;5.32;;;42.90;38.90;;;;;;4803092;29;92245;-71
2022/08/28 10:13:01;;;;;;;5.20;4.45;;;43.20;37.80;;;;;;4804416;29;92205;-72
2022/08/28 10:15:45;;;;;;;4.80;4.35;;;43.20;37.10;;;;;;4803707;29;91779;-71
2022/08/28 10:18:29;;;;;;;6.28;5.32;;;41.30;39.10;;;;;;4801936;29;91663;-70
2022/08/28 10:21:12;;;;;;;5.78;4.93;;;39.80;40.00;;;;;;4803310;29;92357;-69
2022/08/28 10:23:44;;;;;;;5.63;4.88;;;37.40;42.30;;;;;;4804171;29;92062;-71
2022/08/28 10:26:32;;;;;;;5.38;4.63;;;34.40;47.70;;;;;;4798721;29;90612;-71
2022/08/28 10:29:13;;;;;;;4.70;4.07;;;32.80;50.30;;;;;;4800215;29;94256;-65
2022/08/28 10:32:01;;;;;;;4.57;4.10;;;30.50;55.50;;;;;;4803556;29;93381;-68
2022/08/28 10:34:45;;;;;;;4.65;3.35;;;29.50;56.10;;;;;;4787889;29;93199;-68
2022/08/28 10:37:13;;;;;;;4.80;3.58;;;29.30;57.10;;;;;;4800776;29;91328;-71
2022/08/28 10:39:48;;;;;;;;;;;29.10;59.20;;;;;;4804657;29;91790;-70
2022/08/28 10:42:21;;;;;;;4.38;3.10;;;28.90;58.00;;;;;;4799348;29;92063;-69
2022/08/28 10:44:57;;;;;;;7.10;3.88;;;28.40;59.60;;;;;;4803634;29;91798;-69
2022/08/28 10:47:25;;;;;;;5.35;2.92;;;28.30;58.30;;;;;;4803848;29;92017;-68
2022/08/28 10:49:53;;;;;;;6.97;2.63;;;28.50;56.60;;;;;;4802716;29;93849;-70
2022/08/28 10:52:30;;;;;;;3.35;2.28;;;27.90;60.80;;;;;;4804034;29;92058;-70
2022/08/28 10:55:11;;;;;;;4.63;3.25;;;28.00;59.80;;;;;;4802752;29;93620;-71
2022/08/28 10:57:50;;;;;;;5.05;2.47;;;28.20;59.50;;;;;;4803005;29;91550;-70
2022/08/28 11:00:20;;;;;;;4.28;2.72;;;27.70;61.00;;;;;;4795856;29;95007;-71
2022/08/28 11:02:51;;;;;;;4.00;2.53;;;27.50;62.40;;;;;;4799018;29;92857;-71
2022/08/28 11:05:22;;;;;;;5.47;3.28;;;27.50;62.40;;;;;;4802654;29;91410;-67
2022/08/28 11:07:52;;;;;;;5.38;3.08;;;27.70;62.80;;;;;;4802962;29;91859;-70
2022/08/28 11:10:37;;;;;;;4.25;2.63;;;26.90;64.50;;;;;;4803162;29;92208;-70
2022/08/28 11:13:05;;;;;;;4.47;2.45;;;26.80;65.60;;;;;;4801926;29;93457;-69
2022/08/28 11:15:31;;;;;;;5.25;2.30;;;26.90;64.00;;;;;;4803127;29;91844;-66
2022/08/28 11:18:17;;;;;;;5.75;3.33;;;26.90;64.60;;;;;;4802366;29;91046;-69
2022/08/28 11:21:29;;;;;;;4.35;2.30;;;26.70;66.40;;;;;;4794649;29;93774;-71
2022/08/28 11:24:08;;;;;;;4.28;2.38;;;26.20;66.90;;;;;;4785108;29;91588;-66
2022/08/28 11:26:45;;;;;;;4.13;2.72;;;26.60;65.70;;;;;;4802577;29;93448;-70
2022/08/28 11:29:11;;;;;;;4.25;2.42;;;26.40;68.10;;;;;;4803469;29;91856;-70
2022/08/28 11:31:39;;;;;;;5.95;2.22;;;26.70;68.20;;;;;;4802342;29;92441;-68
2022/08/28 11:34:05;;;;;;;4.68;2.38;;;26.60;66.20;;;;;;4795912;29;91537;-71
2022/08/28 11:36:31;;;;;;;4.03;2.55;;;26.40;66.50;;;;;;4802651;29;91502;-69
2022/08/28 11:39:23;;;;;;;5.45;2.92;;;26.50;66.30;;;;;;4802802;29;91785;-69
2022/08/28 11:42:32;;;;;;;4.97;2.30;;;26.30;67.40;;;;;;4807697;29;92868;-68
2022/08/28 11:44:58;;;;;;;5.05;2.65;;;26.40;67.20;;;;;;4771667;29;91410;-68
2022/08/28 11:47:40;;;;;;;5.20;2.53;;;26.50;67.80;;;;;;4793076;29;91745;-68
2022/08/28 11:50:20;;;;;;;5.32;2.63;;;26.50;67.60;;;;;;4799416;29;91498;-72
2022/08/28 11:53:12;;;;;;;5.05;2.80;;;26.50;67.60;;;;;;4801039;29;93069;-70
2022/08/28 11:56:28;;;;;;;6.45;2.92;;;26.30;67.50;;;;;;4797520;29;94400;-69
2022/08/28 11:59:09;;;;;;;5.60;2.75;;;25.90;70.20;;;;;;4769271;29;91863;-70
2022/08/28 12:01:35;;;;;;;4.43;2.90;;;26.00;68.90;;;;;;4800315;29;91834;-69
2022/08/28 12:04:11;;;;;;;5.50;3.45;;;25.90;69.40;;;;;;4798137;29;92219;-67
2022/08/28 12:06:50;;;;;;;4.90;2.75;;;25.80;68.90;;;;;;4798120;29;92361;-70
2022/08/28 12:09:25;;;;;;;6.57;2.95;;;25.90;69.70;;;;;;4803267;29;91165;-68
2022/08/28 12:12:18;;;;;;;5.35;2.72;;;26.00;69.40;;;;;;4800298;29;90845;-68
2022/08/28 12:14:44;;;;;;;8.07;1.90;;;26.30;69.40;;;;;;4792226;29;92391;-69
2022/08/28 12:17:15;;;;;;;5.88;2.72;;;26.20;68.70;;;;;;4797083;29;92622;-65
2022/08/28 12:20:08;;;;;;;3.85;2.10;;;26.30;66.60;;;;;;4798424;29;92368;-69
2022/08/28 12:22:49;;;;;;;5.10;2.58;;;26.20;68.50;;;;;;4803711;29;91736;-70
2022/08/28 12:25:52;;;;;;;5.10;2.08;;;26.20;68.50;;;;;;4804229;29;93123;-68
2022/08/28 12:28:28;;;;;;;4.43;2.67;;;26.10;68.70;;;;;;4786413;29;92206;-68
2022/08/28 12:30:53;;;;;;;;;;;26.30;67.80;;;;;;4806054;29;91646;-67
2022/08/28 12:33:27;;;;;;;3.25;1.75;;;26.30;68.20;;;;;;4806800;29;91285;-70
2022/08/28 12:35:59;;;;;;;4.65;2.10;;;26.20;68.20;;;;;;4804822;29;92891;-70
2022/08/28 12:38:27;;;;;;;3.20;2.03;;;26.30;67.60;;;;;;4805940;29;92423;-70
2022/08/28 12:40:54;;;;;;;4.45;2.00;;;26.40;68.80;;;;;;4802292;29;91787;-70
2022/08/28 12:43:42;;;;;;;2.40;1.65;;;26.30;68.40;;;;;;4806737;29;91987;-68
2022/08/28 12:46:29;;;;;;;4.30;1.70;;;26.10;68.90;;;;;;4801197;29;93508;-69
2022/08/28 12:49:00;;;;;;;3.65;1.92;;;26.20;69.00;;;;;;4803852;29;92168;-67
2022/08/28 12:51:29;;;;;;;4.22;1.67;;;26.20;67.90;;;;;;4805504;29;91711;-69
2022/08/28 12:54:01;;;;;;;3.13;1.38;;;26.10;67.90;;;;;;4804794;29;91551;-69
2022/08/28 12:56:28;;;;;;;4.82;1.52;;;26.20;67.30;;;;;;4804535;29;93817;-68
2022/08/28 12:58:55;;;;;;;2.75;1.35;;;26.10;68.30;;;;;;4801675;29;93124;-69
2022/08/28 13:01:30;;;;;;;3.53;1.10;;;25.90;68.30;;;;;;4804082;29;91782;-68
2022/08/28 13:04:06;;;;;;;3.30;1.42;;;25.90;68.90;;;;;;4803065;29;91865;-69
2022/08/28 13:06:35;;;;;;;2.30;1.40;;;26.00;68.00;;;;;;4804367;29;93409;-68
2022/08/28 13:09:12;;;;;;;4.97;1.42;;;26.00;67.90;;;;;;4803871;29;93496;-66
2022/08/28 13:11:43;;;;;;;2.90;1.63;;;26.00;68.00;;;;;;4798153;29;94199;-70
2022/08/28 13:14:09;;;;;;;4.68;1.50;;;25.90;68.30;;;;;;4799174;29;92187;-68
2022/08/28 13:16:40;;;;;;;3.08;1.33;;;26.00;68.60;;;;;;4796361;29;92001;-69
2022/08/28 13:19:06;;;;;;;2.97;1.48;;;25.90;68.50;;;;;;4801029;29;92016;-68
2022/08/28 13:21:36;;;;;;;4.15;2.00;;;25.70;69.30;;;;;;4800745;29;91372;-68
2022/08/28 13:24:20;;;;;;;2.75;1.77;;;25.90;69.50;;;;;;4800263;29;92149;-67
2022/08/28 13:26:47;;;;;;;9.77;2.05;;;26.00;70.00;;;;;;4802454;29;92551;-69
2022/08/28 13:29:20;;;;;;;4.07;1.90;;;26.20;68.40;;;;;;4803415;29;91647;-70
2022/08/28 13:31:58;;;;;;;4.43;1.70;;;26.10;69.80;;;;;;4800334;29;91308;-68
2022/08/28 13:34:29;;;;;;;4.32;1.73;;;26.20;69.90;;;;;;4801574;29;91342;-69
2022/08/28 13:37:06;;;;;;;8.55;1.85;;;26.10;68.90;;;;;;4798160;29;93443;-70
2022/08/28 13:39:34;;;;;;;4.70;2.00;;;26.10;68.80;;;;;;4795021;29;94602;-69
2022/08/28 13:42:08;;;;;;;3.67;1.70;;;25.90;69.40;;;;;;4801775;29;92124;-68
2022/08/28 13:44:35;;;;;;;2.67;1.40;;;25.90;70.50;;;;;;4798762;29;92700;-67
2022/08/28 13:47:05;;;;;;;3.58;1.70;;;25.90;69.80;;;;;;4796531;29;92367;-64
2022/08/28 13:49:32;;;;;;;3.53;1.73;;;26.10;69.50;;;;;;4798442;29;93425;-68
2022/08/28 13:51:59;;;;;;;3.10;1.20;;;26.10;69.40;;;;;;4802209;29;92008;-68
2022/08/28 13:54:26;;;;;;;3.92;1.45;;;26.10;68.90;;;;;;4797909;29;92520;-67
2022/08/28 13:56:52;;;;;;;2.25;1.10;;;26.00;68.90;;;;;;4799604;29;92352;-67
2022/08/28 13:59:18;;;;;;;1.83;0.80;;;26.10;69.30;;;;;;4801939;29;93302;-68
2022/08/28 14:04:30;;;;;;;3.50;0.95;;;25.90;68.90;;;;;;4798855;29;91934;-67
2022/08/28 14:06:56;;;;;;;2.67;0.85;;;26.00;69.00;;;;;;4799408;29;92853;-66
2022/08/28 14:09:22;;;;;;;1.60;0.80;;;26.10;68.40;;;;;;4800805;29;91386;-70
2022/08/28 14:11:48;;;;;;;2.38;1.10;;;26.00;68.40;;;;;;4802406;29;91341;-69
2022/08/28 14:14:15;;;;;;;3.45;1.02;;;26.00;68.40;;;;;;4802443;29;91599;-68
2022/08/28 14:16:41;;;;;;;1.88;0.90;;;25.90;68.50;;;;;;4801885;29;91818;-69
2022/08/28 14:19:07;;;;;;;3.17;0.75;;;26.00;68.60;;;;;;4800885;29;91873;-67
2022/08/28 14:21:35;;;;;;;1.77;0.68;;;25.90;67.60;;;;;;4802524;29;91892;-70
2022/08/28 14:24:02;;;;;;;2.88;0.93;;;25.90;67.50;;;;;;4799059;29;91768;-68
2022/08/28 14:26:29;;;;;;;2.28;0.80;;;26.00;67.40;;;;;;4801474;29;94915;-65
2022/08/28 14:29:00;;;;;;;1.33;0.60;;;26.10;67.40;;;;;;4799846;29;92679;-67
2022/08/28 14:31:26;;;;;;;2.00;0.68;;;26.10;67.60;;;;;;4800305;29;91902;-70
2022/08/28 14:33:52;;;;;;;2.40;1.10;;;26.20;66.90;;;;;;4780936;29;91948;-66
2022/08/28 14:36:21;;;;;;;2.03;0.73;;;26.20;66.20;;;;;;4763114;29;92320;-65
2022/08/28 14:38:48;;;;;;;1.65;0.93;;;26.30;66.20;;;;;;4760430;29;93820;-65
2022/08/28 14:41:16;;;;;;;2.17;0.70;;;26.00;67.00;;;;;;4760458;29;92079;-66
2022/08/28 14:43:46;;;;;;;2.15;1.05;;;26.00;67.60;;;;;;4763933;29;91965;-64
2022/08/28 14:46:21;;;;;;;3.65;0.68;;;26.00;67.30;;;;;;4759942;29;91984;-65
2022/08/28 14:48:47;;;;;;;2.72;0.80;;;25.90;67.40;;;;;;4763151;29;92872;-66
2022/08/28 14:51:15;;;;;;;3.67;0.70;;;26.00;67.60;;;;;;4762692;29;92973;-64
2022/08/28 14:53:41;;;;;;;1.85;0.73;;;26.10;67.00;;;;;;4760209;29;92039;-64
2022/08/28 14:56:07;;;;;;;1.77;0.93;;;26.10;67.20;;;;;;4762944;29;92524;-64
2022/08/28 14:58:33;;;;;;;1.60;0.95;;;26.10;67.10;;;;;;4764122;29;92650;-65
2022/08/28 15:01:00;;;;;;;3.60;1.00;;;26.20;67.10;;;;;;4762140;29;91987;-65
2022/08/28 15:03:26;;;;;;;1.95;0.93;;;26.10;67.60;;;;;;4764981;29;91917;-65
2022/08/28 15:06:07;;;;;;;2.85;0.93;;;26.10;68.00;;;;;;4765935;29;92726;-64
2022/08/28 15:08:34;;;;;;;2.28;1.40;;;26.10;67.30;;;;;;4759926;29;91889;-65
2022/08/28 15:11:05;;;;;;;2.22;0.88;;;26.10;67.70;;;;;;4764145;29;93053;-65
2022/08/28 15:13:31;;;;;;;3.67;1.13;;;26.10;68.20;;;;;;4761830;29;91942;-63
2022/08/28 15:16:19;;;;;;;2.25;1.13;;;26.20;67.70;;;;;;4761023;29;93343;-64
2022/08/28 15:18:46;;;;;;;3.53;1.20;;;26.10;68.60;;;;;;4767349;29;92907;-65
2022/08/28 15:21:25;;;;;;;1.58;0.98;;;26.10;68.70;;;;;;4758421;29;93466;-64
2022/08/28 15:23:52;;;;;;;1.83;0.90;;;26.10;68.80;;;;;;4760010;29;92785;-74
2022/08/28 15:26:19;;;;;;;1.60;0.77;;;25.90;69.40;;;;;;4759162;29;92349;-75
2022/08/28 15:28:45;;;;;;;3.00;0.93;;;26.10;69.80;;;;;;4762123;29;93214;-74
2022/08/28 15:31:11;;;;;;;6.13;0.90;;;26.10;69.60;;;;;;4762398;29;92419;-74
2022/08/28 15:33:37;;;;;;;4.65;0.88;;;26.10;69.30;;;;;;4766205;29;92752;-78
2022/08/28 15:36:03;;;;;;;2.92;0.80;;;26.00;70.10;;;;;;4768379;29;92598;-73
2022/08/28 15:41:22;;;;;;;1.58;0.85;;;25.90;70.70;;;;;;4757881;29;92456;-73
2022/08/28 15:41:23;;;;;;;1.70;1.02;;;25.90;70.40;;;;;;4760998;29;93591;-75
2022/08/28 15:43:53;;;;;;;4.32;1.50;;;25.80;70.30;;;;;;4766581;29;92127;-75
2022/08/28 15:46:20;;;;;;;2.65;0.80;;;25.70;71.20;;;;;;4762439;29;95445;-74
2022/08/28 15:48:48;;;;;;;3.42;1.23;;;25.60;71.60;;;;;;4762757;29;92714;-78
2022/08/28 15:51:14;;;;;;;2.25;1.15;;;25.50;71.20;;;;;;4772974;29;92075;-73
2022/08/28 15:53:40;;;;;;;3.13;0.98;;;25.60;71.20;;;;;;4762947;29;92235;-75
2022/08/28 15:56:07;;;;;;;1.83;1.02;;;25.60;71.90;;;;;;4773587;29;92658;-76
2022/08/28 15:58:32;;;;;;;1.98;1.02;;;25.50;71.80;;;;;;4773210;29;94606;-72
2022/08/28 16:00:58;;;;;;;4.80;0.85;;;25.50;72.40;;;;;;4767507;29;92022;-74
2022/08/28 16:03:25;;;;;;;2.65;1.10;;;25.40;72.30;;;;;;4759899;29;92064;-71
2022/08/28 16:05:51;;;;;;;2.13;0.77;;;25.40;72.80;;;;;;4749516;29;94150;-73
2022/08/28 16:08:16;;;;;;;2.08;1.00;;;25.40;72.70;;;;;;4764952;29;92152;-74
2022/08/28 16:10:51;;;;;;;1.90;0.90;;;25.50;72.00;;;;;;4766380;29;92252;-73
2022/08/28 16:13:18;;;;;;;2.75;0.98;;;25.50;71.90;;;;;;4764458;29;92112;-74
2022/08/28 16:15:45;;;;;;;3.22;0.82;;;25.60;71.50;;;;;;4764370;29;92540;-75
2022/08/28 16:18:13;;;;;;;2.40;0.82;;;25.60;71.10;;;;;;4763693;29;92927;-73
2022/08/28 16:20:41;;;;;;;1.75;0.95;;;25.60;71.10;;;;;;4764059;29;92405;-73
2022/08/28 16:23:07;;;;;;;2.03;0.73;;;25.60;71.30;;;;;;4756801;29;91775;-73
2022/08/28 16:25:33;;;;;;;2.25;1.10;;;25.50;71.50;;;;;;4764301;29;92175;-74
2022/08/28 16:27:59;;;;;;;1.85;0.60;;;25.50;71.60;;;;;;4757662;29;91662;-75
2022/08/28 16:30:25;;;;;;;1.98;0.80;;;25.40;72.20;;;;;;4760627;29;93309;-75
2022/08/28 16:32:51;;;;;;;2.83;1.25;;;25.40;72.00;;;;;;4764508;29;93010;-75
2022/08/28 16:35:17;;;;;;;2.33;0.77;;;25.30;72.80;;;;;;4761886;29;93481;-73
2022/08/28 16:37:42;;;;;;;2.17;0.73;;;25.20;73.50;;;;;;4758142;29;92014;-74
2022/08/28 16:40:09;;;;;;;1.75;0.80;;;25.30;72.80;;;;;;4766846;29;93449;-79
2022/08/28 16:42:35;;;;;;;4.53;1.02;;;25.30;72.30;;;;;;4773526;29;92788;-78
2022/08/28 16:45:02;;;;;;;2.38;0.73;;;25.30;71.50;;;;;;4768371;29;92402;-76
2022/08/28 16:47:30;;;;;;;1.85;0.70;;;25.30;71.80;;;;;;4768422;29;91898;-76
2022/08/28 16:49:57;;;;;;;1.30;0.43;;;25.30;71.90;;;;;;4770374;29;92051;-74
2022/08/28 16:52:23;;;;;;;1.38;0.70;;;25.30;71.60;;;;;;4775525;29;92451;-79
2022/08/28 16:54:50;;;;;;;1.75;0.82;;;25.40;70.70;;;;;;4773955;29;93876;-78
2022/08/28 16:57:17;;;;;;;1.40;0.50;;;25.50;71.10;;;;;;4756433;29;94608;-79
2022/08/28 16:59:43;;;;;;;1.15;0.52;;;25.60;70.80;;;;;;4769684;29;92080;-79
2022/08/28 17:02:09;;;;;;;2.70;0.80;;;25.70;70.30;;;;;;4774585;29;92486;-80
2022/08/28 17:04:34;;;;;;;3.35;0.65;;;25.70;70.20;;;;;;4771064;29;92067;-79
2022/08/28 17:07:00;;;;;;;1.92;0.88;;;25.70;70.20;;;;;;4772389;29;92783;-80
2022/08/28 17:09:26;;;;;;;1.70;0.55;;;25.70;69.30;;;;;;4771712;29;93517;-79
2022/08/28 17:11:52;;;;;;;1.40;0.60;;;25.60;70.00;;;;;;4774284;29;92148;-77
2022/08/28 17:14:19;;;;;;;3.90;0.60;;;25.50;69.50;;;;;;4773193;29;93061;-79
2022/08/28 17:16:44;;;;;;;2.13;0.93;;;25.50;70.40;;;;;;4764212;29;92689;-77